createdAt,value
2022-08-10T00:04:49.401Z,54.51
2022-08-10T00:09:52.128Z,54.86
2022-08-10T00:14:56.307Z,56.05
2022-08-10T00:20:03.455Z,55.41
2022-08-10T00:25:08.540Z,56.65
2022-08-10T00:30:14.087Z,56.26
2022-08-10T00:35:16.846Z,57.36
2022-08-10T00:40:37.216Z,57.47
2022-08-10T00:45:42.080Z,57.68
2022-08-10T00:50:46.036Z,58.27
2022-08-10T00:57:12.243Z,58.42
2022-08-10T01:02:08.499Z,59.11
2022-08-10T01:06:54.629Z,59.51
2022-08-10T01:12:39.752Z,60.86
2022-08-10T01:17:50.201Z,60.74
2022-08-10T01:23:26.936Z,61.46
2022-08-10T01:28:38.913Z,61.28
2022-08-10T01:34:01.957Z,61.36
2022-08-10T01:39:07.349Z,62.44
2022-08-10T01:44:13.232Z,62.47
2022-08-10T01:49:20.332Z,63.59
2022-08-10T01:54:27.227Z,65.58
2022-08-10T01:59:34.776Z,66.24
2022-08-10T02:04:39.544Z,66.01
2022-08-10T02:09:47.903Z,66.18
2022-08-10T02:14:55.095Z,68.01
2022-08-10T02:20:03.164Z,69.33
2022-08-10T02:25:09.092Z,69.47
2022-08-10T02:30:15.450Z,68.82
2022-08-10T02:35:22.695Z,70.71
2022-08-10T02:45:13.917Z,70.22
2022-08-10T02:45:51.348Z,70.93
2022-08-10T02:50:59.629Z,68.88
2022-08-10T02:56:07.621Z,70.95
2022-08-10T03:01:14.303Z,74.47
2022-08-10T03:06:21.721Z,74.28
2022-08-10T03:12:35.373Z,76.86
2022-08-10T03:16:52.384Z,74.72
2022-08-10T03:21:58.067Z,74.70
2022-08-10T03:27:01.533Z,75.70
2022-08-10T03:32:06.708Z,74.12
2022-08-10T03:37:10.953Z,77.25
2022-08-10T03:42:16.223Z,75.29
2022-08-10T03:47:22.219Z,77.07
2022-08-10T03:52:27.505Z,79.09
2022-08-10T03:57:31.001Z,82.16
2022-08-10T04:02:44.494Z,83.54
2022-08-10T04:07:52.462Z,81.84
2022-08-10T04:12:55.744Z,80.92
2022-08-10T04:18:05.752Z,81.55
2022-08-10T04:23:16.279Z,83.88
2022-08-10T04:28:20.198Z,85.67
2022-08-10T04:33:24.605Z,85.35
2022-08-10T04:38:30.887Z,84.00
2022-08-10T04:43:34.091Z,83.70
2022-08-10T04:48:42.688Z,81.37
2022-08-10T04:54:05.147Z,85.39
2022-08-10T04:59:12.237Z,83.72
2022-08-10T05:04:36.395Z,88.02
2022-08-10T05:10:02.469Z,88.59
2022-08-10T05:15:02.523Z,87.82
2022-08-10T05:20:07.669Z,87.38
2022-08-10T05:25:13.726Z,85.94
2022-08-10T05:30:20.274Z,86.38
2022-08-10T05:35:23.711Z,87.16
2022-08-10T05:40:28.700Z,84.81
2022-08-10T05:45:31.710Z,83.98
2022-08-10T05:50:34.767Z,81.60
2022-08-10T05:55:38.930Z,79.96
2022-08-10T06:00:49.947Z,79.71
2022-08-10T06:05:55.604Z,77.62
2022-08-10T06:12:23.233Z,75.88
2022-08-10T06:16:27.406Z,73.65
2022-08-10T06:21:30.423Z,71.17
2022-08-10T06:26:34.690Z,67.14
2022-08-10T06:31:48.491Z,67.20
2022-08-10T06:36:54.133Z,65.42
2022-08-10T06:42:16.225Z,62.08
2022-08-10T06:47:23.868Z,62.02
2022-08-10T06:52:28.444Z,60.33
2022-08-10T06:57:35.674Z,58.33
2022-08-10T07:02:45.311Z,56.59
2022-08-10T07:07:49.455Z,56.28
2022-08-10T07:12:58.761Z,55.49
2022-08-10T07:18:03.095Z,54.16
2022-08-10T07:23:56.996Z,53.68
2022-08-10T07:28:34.707Z,52.43
2022-08-10T07:33:39.936Z,51.74
2022-08-10T07:38:44.371Z,51.46
2022-08-10T07:43:51.606Z,51.07
2022-08-10T07:49:01.562Z,49.59
2022-08-10T07:54:08.612Z,49.80
2022-08-10T07:59:17.053Z,48.57
2022-08-10T08:04:21.866Z,48.56
2022-08-10T08:09:26.032Z,48.37
2022-08-10T08:14:31.208Z,48.10
2022-08-10T08:19:37.494Z,47.75
2022-08-10T08:24:45.268Z,46.18
2022-08-10T08:29:50.915Z,46.18
2022-08-10T08:34:56.185Z,45.87
2022-08-10T08:39:59.037Z,44.73
2022-08-10T08:45:15.174Z,45.25
2022-08-10T08:50:29.902Z,45.27
2022-08-10T08:55:52.306Z,43.68
2022-08-10T09:01:24.501Z,43.50
2022-08-10T09:07:03.199Z,43.18
2022-08-10T09:12:21.406Z,41.66
2022-08-10T09:17:33.770Z,41.00
2022-08-10T09:22:44.663Z,42.13
2022-08-10T09:27:49.667Z,41.49
2022-08-10T09:36:24.971Z,40.43
2022-08-10T09:38:35.824Z,40.54
2022-08-10T09:43:45.965Z,39.31
2022-08-10T09:49:02.083Z,38.55
2022-08-10T09:54:17.143Z,39.17
2022-08-10T10:00:00.189Z,39.81
2022-08-10T10:05:13.786Z,38.92
2022-08-10T10:10:23.608Z,37.40
2022-08-10T10:15:34.500Z,37.91
2022-08-10T10:20:45.875Z,38.08
2022-08-10T10:25:59.379Z,35.89
2022-08-10T10:31:16.697Z,36.91
2022-08-10T10:36:23.459Z,35.27
2022-08-10T10:42:03.795Z,35.29
2022-08-10T10:47:09.538Z,36.25
2022-08-10T10:52:28.510Z,34.85
2022-08-10T10:57:59.107Z,35.66
2022-08-10T11:03:16.555Z,34.60
2022-08-10T11:08:28.749Z,34.70
2022-08-10T11:14:26.771Z,34.67
2022-08-10T11:19:11.775Z,33.56
2022-08-10T11:24:48.978Z,33.67
2022-08-10T11:29:56.280Z,32.95
2022-08-10T11:35:11.057Z,33.58
2022-08-10T11:40:22.661Z,32.52
2022-08-10T11:45:31.362Z,32.68
2022-08-10T11:50:38.183Z,31.04
2022-08-10T11:55:49.299Z,31.75
2022-08-10T12:00:55.442Z,31.84
2022-08-10T12:05:59.751Z,31.05
2022-08-10T12:11:04.217Z,30.37
2022-08-10T12:16:10.755Z,30.85
2022-08-10T12:21:22.097Z,29.91
2022-08-10T12:26:29.480Z,30.23
2022-08-10T12:31:39.605Z,30.59
2022-08-10T12:36:48.067Z,28.65
2022-08-10T12:41:58.060Z,28.72
2022-08-10T12:47:10.509Z,28.01
2022-08-10T12:52:20.830Z,27.82
2022-08-10T12:57:27.012Z,27.18
2022-08-10T13:02:33.516Z,27.30
2022-08-10T13:08:25.294Z,27.30
2022-08-10T13:13:04.497Z,27.07
2022-08-10T13:18:18.149Z,26.86
2022-08-10T13:23:25.015Z,26.59
2022-08-10T13:28:39.708Z,26.10
2022-08-10T13:34:39.449Z,25.30
2022-08-10T13:39:13.692Z,24.82
2022-08-10T13:44:29.810Z,23.45
2022-08-10T13:49:42.928Z,24.29
2022-08-10T13:54:47.465Z,23.29
2022-08-10T14:00:36.849Z,23.97
2022-08-10T14:05:24.249Z,23.96
2022-08-10T14:11:10.102Z,24.29
2022-08-10T14:15:55.397Z,23.66
2022-08-10T14:21:00.062Z,21.48
2022-08-10T14:26:48.849Z,21.35
2022-08-10T14:32:00.716Z,22.27
2022-08-10T14:37:09.861Z,22.33
2022-08-10T14:42:27.011Z,22.69
2022-08-10T14:47:52.182Z,22.88
2022-08-10T14:52:58.136Z,20.17
2022-08-10T14:58:19.247Z,20.74
2022-08-10T15:04:02.337Z,20.92
2022-08-10T15:08:53.187Z,22.22
2022-08-10T15:14:20.072Z,21.26
2022-08-10T15:19:34.269Z,21.67
2022-08-10T15:25:06.801Z,20.92
2022-08-10T15:30:29.792Z,19.52
2022-08-10T15:36:05.356Z,19.94
2022-08-10T15:41:11.200Z,19.96
2022-08-10T15:46:20.151Z,20.05
2022-08-10T15:51:32.503Z,19.12
2022-08-10T15:56:56.621Z,18.79
2022-08-10T16:02:15.454Z,19.43
2022-08-10T16:07:45.978Z,17.88
2022-08-10T16:13:00.085Z,18.77
2022-08-10T16:18:08.401Z,18.26
2022-08-10T16:23:17.474Z,19.35
2022-08-10T16:28:23.998Z,18.70
2022-08-10T16:33:53.634Z,18.80
2022-08-10T16:38:56.744Z,19.00
2022-08-10T16:44:02.236Z,20.18
2022-08-10T16:49:06.359Z,22.74
2022-08-10T16:54:11.837Z,22.11
2022-08-10T16:59:20.536Z,23.86
2022-08-10T17:04:25.312Z,22.23
2022-08-10T17:09:32.958Z,23.60
2022-08-10T17:14:39.816Z,23.03
2022-08-10T17:19:45.825Z,25.39
2022-08-10T17:24:56.155Z,26.13
2022-08-10T17:30:04.661Z,27.72
2022-08-10T17:35:16.790Z,28.69
2022-08-10T17:40:25.241Z,29.11
2022-08-10T17:45:47.889Z,30.57
2022-08-10T17:50:55.534Z,31.61
2022-08-10T17:56:01.474Z,32.51
2022-08-10T18:01:38.384Z,33.11
2022-08-10T18:06:29.955Z,33.98
2022-08-10T18:11:35.847Z,34.28
2022-08-10T18:16:41.796Z,34.43
2022-08-10T18:21:47.444Z,34.63
2022-08-10T18:26:55.101Z,34.81
2022-08-10T18:32:01.897Z,35.15
2022-08-10T18:37:06.180Z,34.95
2022-08-10T18:42:14.171Z,36.05
2022-08-10T18:47:20.577Z,35.49
2022-08-10T18:52:28.003Z,36.26
2022-08-10T18:57:56.779Z,36.95
2022-08-10T19:03:32.753Z,36.66
2022-08-10T19:09:46.347Z,37.90
2022-08-10T19:14:55.794Z,37.44
2022-08-10T19:20:07.589Z,38.13
2022-08-10T19:26:41.264Z,38.32
2022-08-10T19:30:52.836Z,38.60
2022-08-10T19:36:09.566Z,38.66
2022-08-10T19:41:18.422Z,38.98
2022-08-10T19:46:36.934Z,39.06
2022-08-10T19:51:49.882Z,39.33
2022-08-10T19:57:01.784Z,39.02
2022-08-10T20:02:10.438Z,39.45
2022-08-10T20:07:18.839Z,39.77
2022-08-10T20:12:35.081Z,39.60
2022-08-10T20:17:55.630Z,40.33
2022-08-10T20:23:13.781Z,40.75
2022-08-10T20:28:21.347Z,39.97
2022-08-10T20:33:30.071Z,41.08
2022-08-10T20:38:39.570Z,42.06
2022-08-10T20:43:51.838Z,42.87
2022-08-10T20:49:01.090Z,43.11
2022-08-10T20:54:08.407Z,42.64
2022-08-10T20:59:33.712Z,42.59
2022-08-10T21:04:51.555Z,42.93
2022-08-10T21:10:04.560Z,42.62
2022-08-10T21:15:21.762Z,43.33
2022-08-10T21:20:47.086Z,43.36
2022-08-10T21:26:07.446Z,43.61
2022-08-10T21:31:37.327Z,43.26
2022-08-10T21:36:50.562Z,43.33
2022-08-10T21:42:28.176Z,43.61
2022-08-10T21:48:07.072Z,44.19
2022-08-10T21:53:44.963Z,44.43
2022-08-10T21:59:15.724Z,44.51
2022-08-10T22:04:36.396Z,44.18
2022-08-10T22:16:09.742Z,44.57
2022-08-10T22:21:41.319Z,44.89
2022-08-10T22:27:46.156Z,45.25
2022-08-10T22:31:25.830Z,45.11
2022-08-10T22:33:28.957Z,44.91
2022-08-10T22:39:12.100Z,46.10
2022-08-10T22:49:36.137Z,46.24
2022-08-10T22:55:03.724Z,46.51
2022-08-10T23:00:16.980Z,46.02
2022-08-10T23:05:34.169Z,46.33
2022-08-10T23:10:40.031Z,46.53
2022-08-10T23:16:12.568Z,46.92
2022-08-10T23:21:17.528Z,47.18
2022-08-10T23:26:25.915Z,47.81
2022-08-10T23:31:50.287Z,48.35
2022-08-10T23:36:57.146Z,50.25
2022-08-10T23:42:07.446Z,50.00
2022-08-10T23:47:15.178Z,50.88
2022-08-10T23:52:19.692Z,51.44
2022-08-10T23:57:24.726Z,51.17
